Terminal Aerodrome Forecast
Issued by NWS

Home | Current Version | Previous Version | Text Only | Print | Product List | Glossary On
Versions: 1 2 3 4 5 6 7 8 9 10 11 12 13 14 15 16
000
FTUS45 KFGZ 251728
TAFSEZ
TAF
KSEZ 251728Z 2518/2618 04008KT P6SM FEW200
     FM251900 23010G20KT P6SM FEW150 SCT200
     FM260200 VRB05KT P6SM SCT100 BKN140
     FM261200 19005KT P6SM SCT030 OVC060=

USA.gov is the U.S. government's official web portal to all federal, state and local government web resources and services.